Time;durP1;ratioP1;P1;durP2;ratioP2;P2;SDS_P1;SDS_P2;PMS_P1;PMS_P2;Temp;Humidity;BMP_temperature;BMP_pressure;BME280_temperature;BME280_humidity;BME280_pressure;Samples;Min_cycle;Max_cycle;Signal;HPM_P1;HPM_P2
2023/03/22 00:01:16;;;;;;;;;;;;;;;12.68;85.43;99941.69;5054337;28;19936;-59
2023/03/22 00:03:41;;;;;;;;;;;;;;;12.69;84.89;99932.72;5068169;28;20381;-58
2023/03/22 00:06:07;;;;;;;;;;;;;;;12.67;85.02;99930.13;5059869;28;20023;-58
2023/03/22 00:08:32;;;;;;;;;;;;;;;12.63;85.22;99939.22;5050511;28;19927;-58
2023/03/22 00:10:58;;;;;;;;;;;;;;;12.55;85.45;99929.78;5047988;28;20462;-58
2023/03/22 00:13:23;;;;;;;;;;;;;;;12.50;85.89;99926.44;5048700;28;19939;-59
2023/03/22 00:15:48;;;;;;;;;;;;;;;12.50;86.22;99927.31;5050914;28;20343;-58
2023/03/22 00:18:14;;;;;;;;;;;;;;;12.54;86.09;99922.69;5051762;28;19916;-58
2023/03/22 00:20:50;;;;;;;;;;;;;;;12.53;85.75;99913.84;5054060;28;19990;-58
2023/03/22 00:23:15;;;;;;;;;;;;;;;12.53;85.27;99905.84;5056764;28;19920;-58
2023/03/22 00:25:42;;;;;;;;;;;;;;;12.54;84.89;99910.22;5051910;28;19917;-58
2023/03/22 00:28:07;;;;;;;;;;;;;;;12.59;84.26;99910.91;5054417;28;19952;-58
2023/03/22 00:30:32;;;;;;;;;;;;;;;12.62;83.81;99910.78;5052217;28;19959;-59
2023/03/22 00:32:57;;;;;;;;;;;;;;;12.64;83.84;99903.56;5064547;28;20422;-58
2023/03/22 00:35:23;;;;;;;;;;;;;;;12.61;83.46;99909.06;5070885;28;19944;-59
2023/03/22 00:37:50;;;;;;;;;;;;;;;12.62;83.26;99907.25;5071622;28;19920;-59
2023/03/22 00:40:16;;;;;;;;;;;;;;;12.61;83.23;99906.38;5055417;28;20387;-59
2023/03/22 00:42:41;;;;;;;;;;;;;;;12.60;83.83;99909.13;5052386;28;19946;-58
2023/03/22 00:45:07;;;;;;;;;;;;;;;12.55;84.00;99911.13;5053989;28;19963;-58
2023/03/22 00:47:33;;;;;;;;;;;;;;;12.50;84.06;99903.31;5051173;28;20006;-59
2023/03/22 00:49:58;;;;;;;;;;;;;;;12.44;84.75;99900.88;5052658;28;20034;-58
2023/03/22 00:52:24;;;;;;;;;;;;;;;12.38;84.22;99887.81;5067796;28;19920;-58
2023/03/22 00:54:50;;;;;;;;;;;;;;;12.31;85.05;99886.31;5067053;28;20380;-58
2023/03/22 00:57:16;;;;;;;;;;;;;;;12.22;84.88;99889.38;5056746;28;19947;-59
2023/03/22 00:59:41;;;;;;;;;;;;;;;12.14;85.99;99886.13;5051751;28;20446;-58
2023/03/22 01:02:08;;;;;;;;;;;;;;;12.06;86.00;99882.91;5064763;28;20033;-59
2023/03/22 01:04:34;;;;;;;;;;;;;;;12.05;86.29;99883.88;5072103;28;19945;-59
2023/03/22 01:07:02;;;;;;;;;;;;;;;12.01;86.42;99876.06;5067547;28;20414;-58
2023/03/22 01:09:29;;;;;;;;;;;;;;;11.94;86.74;99878.09;5061304;28;19935;-59
2023/03/22 01:11:55;;;;;;;;;;;;;;;11.87;87.40;99879.28;5071722;28;19954;-59
2023/03/22 01:14:21;;;;;;;;;;;;;;;11.84;87.83;99876.75;5064150;28;20005;-59
2023/03/22 01:16:46;;;;;;;;;;;;;;;11.79;87.53;99868.06;5071621;28;19967;-59
2023/03/22 01:19:11;;;;;;;;;;;;;;;11.78;87.57;99866.31;5070878;28;19917;-58
2023/03/22 01:21:37;;;;;;;;;;;;;;;11.77;87.49;99861.91;5054254;28;20285;-58
2023/03/22 01:24:02;;;;;;;;;;;;;;;11.79;87.67;99860.06;5051812;28;19935;-58
2023/03/22 01:26:27;;;;;;;;;;;;;;;11.75;87.28;99856.66;5052412;28;19927;-59
2023/03/22 01:28:52;;;;;;;;;;;;;;;11.72;87.46;99851.44;5052729;28;19928;-58
2023/03/22 01:31:18;;;;;;;;;;;;;;;11.64;88.12;99845.56;5054842;28;19965;-59
2023/03/22 01:33:43;;;;;;;;;;;;;;;11.64;88.33;99842.00;5069968;28;19969;-59
2023/03/22 01:36:08;;;;;;;;;;;;;;;11.65;87.79;99841.94;5071426;28;19938;-59
2023/03/22 01:38:34;;;;;;;;;;;;;;;11.66;87.62;99845.50;5071797;28;19920;-58
2023/03/22 01:40:59;;;;;;;;;;;;;;;11.64;87.83;99847.34;5071521;28;20066;-59
2023/03/22 01:43:24;;;;;;;;;;;;;;;11.62;88.80;99843.84;5055675;28;20407;-59
2023/03/22 01:45:50;;;;;;;;;;;;;;;11.63;88.09;99837.59;5051172;28;19920;-59
2023/03/22 01:48:18;;;;;;;;;;;;;;;11.64;88.24;99839.34;5051283;28;19923;-59
2023/03/22 01:50:54;;;;;;;;;;;;;;;11.63;88.39;99837.59;5051927;28;20412;-59
2023/03/22 01:53:22;;;;;;;;;;;;;;;11.61;88.39;99844.78;5070084;28;19934;-59
2023/03/22 01:55:48;;;;;;;;;;;;;;;11.58;87.70;99839.56;5071535;28;19965;-59
2023/03/22 01:58:16;;;;;;;;;;;;;;;11.55;88.44;99843.22;5071320;28;20466;-59
2023/03/22 02:00:42;;;;;;;;;;;;;;;11.54;87.90;99840.59;5064760;28;20406;-59
2023/03/22 02:03:07;;;;;;;;;;;;;;;11.55;88.66;99845.88;5069194;28;19937;-58
2023/03/22 02:05:34;;;;;;;;;;;;;;;11.57;88.54;99840.47;5070679;28;19949;-58
2023/03/22 02:08:00;;;;;;;;;;;;;;;11.55;88.17;99842.31;5057625;28;19935;-58
2023/03/22 02:10:26;;;;;;;;;;;;;;;11.56;89.04;99833.44;5050750;28;19928;-59
2023/03/22 02:12:51;;;;;;;;;;;;;;;11.56;88.61;99844.97;5050776;28;19932;-59
2023/03/22 02:15:16;;;;;;;;;;;;;;;11.56;87.82;99833.44;5050591;28;19946;-59
2023/03/22 02:18:05;;;;;;;;;;;;;;;11.58;88.19;99831.59;5053345;28;20434;-59
2023/03/22 02:20:45;;;;;;;;;;;;;;;11.54;88.43;99830.84;5053089;28;19987;-58
2023/03/22 02:23:29;;;;;;;;;;;;;;;11.52;87.84;99834.47;5050732;28;20610;-58
2023/03/22 02:25:57;;;;;;;;;;;;;;;11.50;87.89;99825.66;5050545;28;19917;-58
2023/03/22 02:28:41;;;;;;;;;;;;;;;11.48;88.43;99824.88;5050635;28;19917;-58
2023/03/22 02:31:09;;;;;;;;;;;;;;;11.45;88.42;99831.19;5064349;28;19924;-58
2023/03/22 02:33:37;;;;;;;;;;;;;;;11.44;88.60;99831.25;5069715;28;19920;-59
2023/03/22 02:36:23;;;;;;;;;;;;;;;11.44;87.97;99832.13;5056423;28;19935;-59
2023/03/22 02:38:48;;;;;;;;;;;;;;;11.38;87.47;99831.50;5050452;28;19934;-58
2023/03/22 02:41:24;;;;;;;;;;;;;;;11.36;88.07;99836.00;5052846;28;19927;-58
2023/03/22 02:44:01;;;;;;;;;;;;;;;11.34;87.82;99833.41;5050185;28;19916;-59
2023/03/22 02:46:29;;;;;;;;;;;;;;;11.34;88.44;99832.50;4963258;28;20691;-58
2023/03/22 02:48:58;;;;;;;;;;;;;;;11.34;87.49;99843.16;5070142;28;19935;-59
2023/03/22 02:51:43;;;;;;;;;;;;;;;11.32;88.32;99834.38;5069918;28;19991;-59
2023/03/22 02:54:14;;;;;;;;;;;;;;;11.29;88.60;99837.16;5060455;28;19916;-58
2023/03/22 02:56:40;;;;;;;;;;;;;;;11.24;88.29;99831.13;5069031;28;19939;-59
2023/03/22 02:59:07;;;;;;;;;;;;;;;11.21;87.57;99826.81;5063564;28;20346;-59
2023/03/22 03:01:36;;;;;;;;;;;;;;;11.21;87.46;99825.94;5054222;28;20518;-59
2023/03/22 03:04:03;;;;;;;;;;;;;;;11.20;87.24;99824.22;5068614;28;19948;-58
2023/03/22 03:06:32;;;;;;;;;;;;;;;11.20;87.28;99818.88;5068316;28;19996;-58
2023/03/22 03:09:03;;;;;;;;;;;;;;;11.21;87.61;99816.16;5058228;28;19931;-59
2023/03/22 03:11:29;;;;;;;;;;;;;;;11.23;86.56;99818.75;5049715;28;20038;-59
2023/03/22 03:13:55;;;;;;;;;;;;;;;11.22;87.02;99822.34;5052446;28;19916;-59
2023/03/22 03:16:21;;;;;;;;;;;;;;;11.25;87.00;99816.91;5066871;28;20055;-59
2023/03/22 03:18:53;;;;;;;;;;;;;;;11.21;87.30;99823.28;5069478;28;19985;-59
2023/03/22 03:21:28;;;;;;;;;;;;;;;11.21;86.29;99823.28;5065980;28;19931;-59
2023/03/22 03:24:10;;;;;;;;;;;;;;;11.15;86.78;99821.69;5069391;28;19945;-58
2023/03/22 03:26:44;;;;;;;;;;;;;;;11.08;87.46;99817.56;5059821;28;19953;-59
2023/03/22 03:29:21;;;;;;;;;;;;;;;11.05;86.60;99825.66;5049032;28;19928;-59
2023/03/22 03:31:46;;;;;;;;;;;;;;;10.97;87.29;99819.72;5056741;28;19986;-59
2023/03/22 03:34:24;;;;;;;;;;;;;;;10.93;87.29;99830.56;5069565;28;19963;-59
2023/03/22 03:36:56;;;;;;;;;;;;;;;10.87;87.46;99834.31;5051961;28;20406;-58
2023/03/22 03:39:23;;;;;;;;;;;;;;;10.83;87.92;99834.47;5049721;28;19999;-59
2023/03/22 03:41:50;;;;;;;;;;;;;;;10.82;88.42;99838.06;5067414;28;20380;-58
2023/03/22 03:44:15;;;;;;;;;;;;;;;10.71;88.30;99841.09;5047015;28;19927;-59
2023/03/22 03:46:41;;;;;;;;;;;;;;;10.68;89.34;99840.34;5052097;28;20437;-59
2023/03/22 03:49:07;;;;;;;;;;;;;;;10.60;90.00;99838.84;5069446;28;20294;-59
2023/03/22 03:51:32;;;;;;;;;;;;;;;10.58;90.54;99843.34;5068514;28;19951;-60
2023/03/22 03:53:58;;;;;;;;;;;;;;;10.60;90.40;99846.81;5073555;28;19937;-59
2023/03/22 03:56:23;;;;;;;;;;;;;;;10.60;90.44;99838.84;5065188;28;19933;-59
2023/03/22 03:58:48;;;;;;;;;;;;;;;10.63;90.21;99838.72;5053248;28;20277;-59
2023/03/22 04:01:14;;;;;;;;;;;;;;;10.67;90.26;99839.50;5055320;28;19916;-58
2023/03/22 04:03:40;;;;;;;;;;;;;;;10.70;90.53;99838.50;5055380;28;19948;-58
2023/03/22 04:06:07;;;;;;;;;;;;;;;10.70;91.13;99838.50;5070086;28;19935;-59
2023/03/22 04:08:32;;;;;;;;;;;;;;;10.74;89.95;99834.81;5063649;28;20317;-58
2023/03/22 04:10:58;;;;;;;;;;;;;;;10.72;90.43;99834.00;5053064;28;19925;-59
2023/03/22 04:13:24;;;;;;;;;;;;;;;10.67;90.59;99827.97;5053587;28;19948;-59
2023/03/22 04:15:52;;;;;;;;;;;;;;;10.64;90.09;99827.16;5054723;28;20322;-59
2023/03/22 04:18:18;;;;;;;;;;;;;;;10.58;90.34;99827.38;5054363;28;19974;-58
2023/03/22 04:20:44;;;;;;;;;;;;;;;10.59;91.43;99825.59;5070758;28;19961;-58
2023/03/22 04:23:10;;;;;;;;;;;;;;;10.58;90.43;99824.72;5071412;28;19937;-59
2023/03/22 04:25:36;;;;;;;;;;;;;;;10.53;90.76;99821.34;5054071;28;19953;-58
2023/03/22 04:28:03;;;;;;;;;;;;;;;10.50;91.68;99829.44;5051805;28;19917;-58
2023/03/22 04:30:29;;;;;;;;;;;;;;;10.50;91.83;99820.59;5057335;28;20028;-59
2023/03/22 04:32:55;;;;;;;;;;;;;;;10.50;91.62;99820.59;5068452;28;20388;-58
2023/03/22 04:35:20;;;;;;;;;;;;;;;10.48;91.55;99815.34;5070385;28;20013;-58
2023/03/22 04:37:47;;;;;;;;;;;;;;;10.44;91.50;99811.03;5054681;28;19979;-58
2023/03/22 04:40:15;;;;;;;;;;;;;;;10.44;92.47;99810.19;5068464;28;19934;-59
2023/03/22 04:42:40;;;;;;;;;;;;;;;10.43;91.93;99808.44;5062625;28;19963;-58
2023/03/22 04:45:06;;;;;;;;;;;;;;;10.44;91.86;99802.22;5060818;28;19965;-58
2023/03/22 04:47:31;;;;;;;;;;;;;;;10.47;92.04;99799.44;5069756;28;19955;-59
2023/03/22 04:49:57;;;;;;;;;;;;;;;10.47;91.84;99802.97;5071560;28;19916;-58
2023/03/22 04:52:22;;;;;;;;;;;;;;;10.44;92.50;99805.72;5072359;28;19927;-59
2023/03/22 04:54:47;;;;;;;;;;;;;;;10.42;92.36;99804.03;5060805;28;19971;-58
2023/03/22 04:57:12;;;;;;;;;;;;;;;10.46;91.48;99803.88;5052125;28;20624;-59
2023/03/22 04:59:38;;;;;;;;;;;;;;;10.45;91.38;99799.50;5054609;28;19937;-58
2023/03/22 05:02:03;;;;;;;;;;;;;;;10.46;91.23;99801.22;5060780;28;19927;-59
2023/03/22 05:04:28;;;;;;;;;;;;;;;10.42;92.02;99796.94;5071707;28;20451;-58
2023/03/22 05:06:53;;;;;;;;;;;;;;;10.41;91.75;99795.19;5059930;28;19940;-59
2023/03/22 05:09:19;;;;;;;;;;;;;;;10.41;91.53;99800.50;5065085;28;19935;-59
2023/03/22 05:11:44;;;;;;;;;;;;;;;10.40;91.74;99798.78;5069358;28;20691;-59
2023/03/22 05:14:09;;;;;;;;;;;;;;;10.36;91.34;99797.16;5052025;28;19926;-59
2023/03/22 05:16:35;;;;;;;;;;;;;;;10.31;91.45;99804.41;5051743;28;19931;-59
2023/03/22 05:19:01;;;;;;;;;;;;;;;10.33;92.31;99805.22;5054376;28;19933;-59
2023/03/22 05:21:27;;;;;;;;;;;;;;;10.35;91.14;99811.38;5068928;28;19940;-59
2023/03/22 05:23:55;;;;;;;;;;;;;;;10.31;91.19;99804.41;5068022;28;20057;-59
2023/03/22 05:26:23;;;;;;;;;;;;;;;10.28;91.43;99803.69;5071632;28;20027;-59
2023/03/22 05:28:49;;;;;;;;;;;;;;;10.27;92.01;99802.81;5071812;28;19932;-59
2023/03/22 05:31:15;;;;;;;;;;;;;;;10.24;91.52;99812.66;5059260;28;19961;-59
2023/03/22 05:33:41;;;;;;;;;;;;;;;10.20;92.18;99814.56;5069193;28;19963;-58
2023/03/22 05:36:07;;;;;;;;;;;;;;;10.21;91.93;99815.44;5062680;28;19980;-59
2023/03/22 05:38:32;;;;;;;;;;;;;;;10.22;91.64;99820.69;5051330;28;19935;-58
2023/03/22 05:40:58;;;;;;;;;;;;;;;10.21;91.58;99818.94;5051324;28;20393;-58
2023/03/22 05:43:23;;;;;;;;;;;;;;;10.19;91.34;99831.44;5053845;28;19931;-58
2023/03/22 05:45:49;;;;;;;;;;;;;;;10.20;92.54;99814.56;5056947;28;19956;-59
2023/03/22 05:48:15;;;;;;;;;;;;;;;10.23;91.64;99821.56;5063790;28;19931;-59
2023/03/22 05:50:40;;;;;;;;;;;;;;;10.27;92.09;99812.56;5057474;28;20002;-59
2023/03/22 05:53:06;;;;;;;;;;;;;;;10.33;91.67;99821.19;5070473;28;19932;-57
2023/03/22 05:55:31;;;;;;;;;;;;;;;10.41;90.97;99816.47;5057881;28;19946;-58
2023/03/22 05:57:57;;;;;;;;;;;;;;;10.50;90.68;99816.16;5050585;28;20544;-58
2023/03/22 06:00:23;;;;;;;;;;;;;;;10.56;89.83;99818.59;5051229;28;20022;-58
2023/03/22 06:02:49;;;;;;;;;;;;;;;10.61;89.74;99816.63;5068642;28;19944;-58
2023/03/22 06:05:15;;;;;;;;;;;;;;;10.77;90.72;99819.63;5070843;28;20299;-58
2023/03/22 06:07:41;;;;;;;;;;;;;;;11.05;89.96;99824.78;5071327;28;19936;-59
2023/03/22 06:10:07;;;;;;;;;;;;;;;11.40;88.39;99816.31;5067107;28;19921;-58
2023/03/22 06:12:32;;;;;;;;;;;;;;;11.81;86.86;99812.91;5070878;28;19927;-59
2023/03/22 06:14:58;;;;;;;;;;;;;;;12.22;83.74;99812.06;5070581;28;20707;-58
2023/03/22 06:17:23;;;;;;;;;;;;;;;12.25;79.85;99817.25;5054567;28;20023;-57
2023/03/22 06:19:49;;;;;;;;;;;;;;;12.34;80.06;99814.19;5051066;28;19977;-58
2023/03/22 06:22:14;;;;;;;;;;;;;;;12.78;78.35;99814.91;5053234;28;19921;-58
2023/03/22 06:24:41;;;;;;;;;;;;;;;13.70;74.69;99807.91;5050803;28;20055;-58
2023/03/22 06:27:06;;;;;;;;;;;;;;;14.65;70.58;99811.97;5069123;28;19927;-58
2023/03/22 06:29:32;;;;;;;;;;;;;;;15.55;65.41;99807.03;5053119;28;19931;-59
2023/03/22 06:31:57;;;;;;;;;;;;;;;16.30;60.40;99806.25;5058963;28;20037;-58
2023/03/22 06:34:22;;;;;;;;;;;;;;;17.27;56.60;99806.53;5066974;28;20022;-59
2023/03/22 06:36:48;;;;;;;;;;;;;;;18.36;53.45;99817.25;5070165;28;19938;-58
2023/03/22 06:39:13;;;;;;;;;;;;;;;19.51;49.90;99805.50;5069229;28;19928;-58
2023/03/22 06:41:38;;;;;;;;;;;;;;;20.47;46.50;99819.00;5052864;28;19931;-58
2023/03/22 06:44:04;;;;;;;;;;;;;;;20.76;45.55;99825.72;5051705;28;19969;-58
2023/03/22 06:46:29;;;;;;;;;;;;;;;20.47;45.32;99827.09;5057977;28;20003;-59
2023/03/22 06:48:54;;;;;;;;;;;;;;;20.03;46.22;99837.63;5068604;28;19930;-58
2023/03/22 06:51:20;;;;;;;;;;;;;;;19.76;47.31;99834.25;5068584;28;19950;-58
2023/03/22 06:53:45;;;;;;;;;;;;;;;19.70;47.12;99834.72;5067806;28;20303;-58
2023/03/22 06:56:11;;;;;;;;;;;;;;;20.21;46.50;99832.75;5070080;28;19972;-59
2023/03/22 06:58:36;;;;;;;;;;;;;;;20.23;45.94;99837.03;5059769;28;19923;-59
2023/03/22 07:01:02;;;;;;;;;;;;;;;18.91;48.43;99844.00;5051005;28;19967;-58
2023/03/22 07:03:27;;;;;;;;;;;;;;;18.06;50.49;99841.69;5069167;28;19986;-58
2023/03/22 07:05:58;;;;;;;;;;;;;;;16.58;54.32;99852.00;5050787;28;20415;-58
2023/03/22 07:08:24;;;;;;;;;;;;;;;15.65;61.15;99844.91;5054245;28;19945;-58
2023/03/22 07:10:50;;;;;;;;;;;;;;;16.64;58.75;99843.59;5063233;28;19920;-57
2023/03/22 07:13:15;;;;;;;;;;;;;;;17.41;55.94;99838.78;5059458;28;19940;-59
2023/03/22 07:15:40;;;;;;;;;;;;;;;18.57;53.43;99836.50;5049300;28;20384;-58
2023/03/22 07:18:07;;;;;;;;;;;;;;;19.70;48.41;99832.03;5049450;28;19994;-58
2023/03/22 07:20:35;;;;;;;;;;;;;;;20.73;46.57;99842.19;5066495;28;19931;-58
2023/03/22 07:23:01;;;;;;;;;;;;;;;21.28;44.41;99840.63;5049670;28;19938;-58
2023/03/22 07:25:26;;;;;;;;;;;;;;;21.61;44.16;99840.63;5049115;28;19923;-58
2023/03/22 07:27:51;;;;;;;;;;;;;;;21.81;43.21;99831.81;5051744;28;19939;-58
2023/03/22 07:30:17;;;;;;;;;;;;;;;22.17;42.93;99828.78;5031925;28;20296;-58
2023/03/22 07:32:42;;;;;;;;;;;;;;;22.44;41.97;99834.59;5063536;28;19950;-58
2023/03/22 07:35:07;;;;;;;;;;;;;;;22.41;42.04;99837.56;5054406;28;19935;-58
2023/03/22 07:37:32;;;;;;;;;;;;;;;22.11;41.96;99840.09;5048502;28;19941;-58
2023/03/22 07:39:58;;;;;;;;;;;;;;;21.79;43.20;99845.47;5051172;28;20168;-59
2023/03/22 07:42:23;;;;;;;;;;;;;;;22.33;42.68;99847.31;5048858;28;20349;-58
2023/03/22 07:44:48;;;;;;;;;;;;;;;23.05;41.65;99839.25;5049217;28;19951;-58
2023/03/22 07:47:14;;;;;;;;;;;;;;;23.62;40.43;99837.88;5066203;28;20290;-58
2023/03/22 07:49:39;;;;;;;;;;;;;;;22.85;41.01;99850.13;5068686;28;19923;-58
2023/03/22 07:52:05;;;;;;;;;;;;;;;22.69;41.87;99845.13;5063117;28;20034;-58
2023/03/22 07:54:31;;;;;;;;;;;;;;;22.65;41.79;99843.66;5048349;28;19958;-58
2023/03/22 07:56:56;;;;;;;;;;;;;;;22.36;42.30;99845.22;5048684;28;20370;-58
2023/03/22 07:59:22;;;;;;;;;;;;;;;22.47;42.74;99847.88;5063705;28;19946;-58
2023/03/22 08:01:47;;;;;;;;;;;;;;;22.67;42.98;99848.97;5069533;28;20348;-58
2023/03/22 08:04:13;;;;;;;;;;;;;;;22.54;42.24;99846.41;5064233;28;19962;-58
2023/03/22 08:06:39;;;;;;;;;;;;;;;22.05;43.39;99846.03;5069574;28;19927;-58
2023/03/22 08:09:07;;;;;;;;;;;;;;;22.30;42.76;99840.31;5069640;28;19953;-58
2023/03/22 08:11:32;;;;;;;;;;;;;;;22.51;42.35;99830.38;5066729;28;20190;-58
2023/03/22 08:13:57;;;;;;;;;;;;;;;22.45;42.21;99833.63;5069425;28;20022;-58
2023/03/22 08:16:22;;;;;;;;;;;;;;;22.83;42.16;99838.53;5065380;28;19976;-59
2023/03/22 08:18:48;;;;;;;;;;;;;;;22.79;42.43;99840.63;5069217;28;19923;-59
2023/03/22 08:21:13;;;;;;;;;;;;;;;22.25;42.76;99837.13;5068044;28;19927;-59
2023/03/22 08:23:38;;;;;;;;;;;;;;;21.74;42.78;99828.69;5066724;28;19945;-59
2023/03/22 08:26:04;;;;;;;;;;;;;;;21.32;43.62;99833.97;5069113;28;19923;-59
2023/03/22 08:28:29;;;;;;;;;;;;;;;20.86;44.78;99829.44;5065488;28;19920;-59
2023/03/22 08:30:54;;;;;;;;;;;;;;;20.80;45.29;99838.03;5067703;28;19947;-59
2023/03/22 08:33:22;;;;;;;;;;;;;;;20.47;45.95;99837.91;5066135;28;20623;-59
2023/03/22 08:35:47;;;;;;;;;;;;;;;20.08;46.27;99835.44;5049378;28;20334;-59
2023/03/22 08:38:13;;;;;;;;;;;;;;;20.52;46.30;99827.63;5051069;28;19951;-59
2023/03/22 08:40:38;;;;;;;;;;;;;;;20.79;45.41;99830.03;5059591;28;19963;-59
2023/03/22 08:43:03;;;;;;;;;;;;;;;20.71;45.97;99830.63;5071185;28;19933;-58
2023/03/22 08:45:29;;;;;;;;;;;;;;;20.78;46.55;99826.47;5071255;28;20004;-59
2023/03/22 08:47:55;;;;;;;;;;;;;;;20.48;46.81;99826.13;5071413;28;19951;-59
2023/03/22 08:50:21;;;;;;;;;;;;;;;20.17;46.83;99831.22;5054464;28;19978;-59
2023/03/22 08:52:46;;;;;;;;;;;;;;;20.50;47.70;99824.16;5069815;28;19968;-59
2023/03/22 08:55:13;;;;;;;;;;;;;;;20.67;46.17;99815.59;5065108;28;19916;-59
2023/03/22 08:57:38;;;;;;;;;;;;;;;20.83;46.61;99816.16;5059536;28;19917;-59
2023/03/22 09:00:05;;;;;;;;;;;;;;;20.55;46.76;99815.69;5051942;28;19917;-59
2023/03/22 09:02:31;;;;;;;;;;;;;;;20.89;46.76;99812.09;5068296;28;19923;-59
2023/03/22 09:04:56;;;;;;;;;;;;;;;21.37;45.74;99772.22;5071623;28;19920;-59
2023/03/22 09:07:23;;;;;;;;;;;;;;;21.92;44.51;99802.00;5067916;28;19931;-58
2023/03/22 09:09:48;;;;;;;;;;;;;;;22.25;44.02;99798.31;5071523;28;20291;-59
2023/03/22 09:12:13;;;;;;;;;;;;;;;22.89;42.49;99800.88;5070825;28;19928;-58
2023/03/22 09:14:39;;;;;;;;;;;;;;;23.08;41.79;99800.16;5071327;28;19931;-59
2023/03/22 09:17:04;;;;;;;;;;;;;;;23.29;41.11;99793.72;5069086;28;19969;-59
2023/03/22 09:19:30;;;;;;;;;;;;;;;23.87;41.88;99788.53;5070971;28;19998;-59
2023/03/22 09:21:55;;;;;;;;;;;;;;;23.82;40.45;99790.78;5067399;28;19935;-59
2023/03/22 09:24:20;;;;;;;;;;;;;;;23.54;41.29;99780.69;5051997;28;20280;-58
2023/03/22 09:26:46;;;;;;;;;;;;;;;24.06;40.59;99783.16;5051190;28;19935;-58
2023/03/22 09:29:11;;;;;;;;;;;;;;;23.63;40.71;99780.72;5053418;28;19932;-58
2023/03/22 09:31:37;;;;;;;;;;;;;;;23.79;41.01;99775.59;5056612;28;19946;-58
2023/03/22 09:34:02;;;;;;;;;;;;;;;23.58;40.86;99779.41;5065338;28;19939;-58
2023/03/22 09:36:27;;;;;;;;;;;;;;;23.64;40.60;99776.16;5051057;28;20311;-58
2023/03/22 09:38:52;;;;;;;;;;;;;;;23.61;40.67;99780.00;5050512;28;19981;-58
2023/03/22 09:41:21;;;;;;;;;;;;;;;24.10;39.86;99774.56;5052841;28;19949;-58
2023/03/22 09:43:50;;;;;;;;;;;;;;;24.36;39.23;99774.88;5051355;28;19924;-58
2023/03/22 09:46:41;;;;;;;;;;;;;;;24.32;40.68;99768.88;5058108;28;19950;-58
2023/03/22 09:49:12;;;;;;;;;;;;;;;24.36;40.59;99761.28;5065619;28;20334;-59
2023/03/22 09:51:46;;;;;;;;;;;;;;;24.24;40.29;99756.97;5069117;28;19962;-59
2023/03/22 09:54:32;;;;;;;;;;;;;;;24.62;39.40;99754.25;5050685;28;19916;-59
2023/03/22 09:57:26;;;;;;;;;;;;;;;25.03;38.48;99758.50;5049672;28;19951;-59
2023/03/22 09:59:51;;;;;;;;;;;;;;;25.22;38.05;99758.47;5026378;28;19961;-59
2023/03/22 10:02:31;;;;;;;;;;;;;;;25.02;38.26;99760.38;5061986;28;20386;-59
2023/03/22 10:05:02;;;;;;;;;;;;;;;24.91;38.38;99749.66;5065141;28;20683;-59
2023/03/22 10:07:34;;;;;;;;;;;;;;;25.23;38.75;99755.59;5069653;28;20398;-59
2023/03/22 10:10:02;;;;;;;;;;;;;;;25.41;37.81;99756.56;5070887;28;20394;-59
2023/03/22 10:12:30;;;;;;;;;;;;;;;25.01;37.90;99750.50;5069905;28;19957;-59
2023/03/22 10:15:02;;;;;;;;;;;;;;;25.12;38.32;99747.63;5053265;28;19989;-59
2023/03/22 10:17:28;;;;;;;;;;;;;;;25.24;38.53;99745.56;5050800;28;20574;-59
2023/03/22 10:20:22;;;;;;;;;;;;;;;24.86;37.24;99734.78;5061776;28;19939;-59
2023/03/22 10:22:49;;;;;;;;;;;;;;;24.01;40.05;99739.22;5048554;28;19951;-59
2023/03/22 10:25:17;;;;;;;;;;;;;;;24.17;39.14;99725.94;5051006;28;19912;-59
2023/03/22 10:27:43;;;;;;;;;;;;;;;24.75;38.78;99716.75;5051550;28;19931;-59
2023/03/22 10:30:17;;;;;;;;;;;;;;;24.83;37.21;99719.59;5051015;28;19934;-59
2023/03/22 10:32:45;;;;;;;;;;;;;;;24.81;38.37;99724.31;5067223;28;19916;-59
2023/03/22 10:35:14;;;;;;;;;;;;;;;24.83;37.30;99725.03;5055535;28;20002;-59
2023/03/22 10:37:41;;;;;;;;;;;;;;;24.70;38.43;99719.06;5052913;28;20046;-59
2023/03/22 10:40:11;;;;;;;;;;;;;;;24.96;36.96;99720.13;5064362;28;19936;-59
2023/03/22 10:42:37;;;;;;;;;;;;;;;25.72;36.71;99714.38;5050347;28;20329;-59
2023/03/22 10:45:06;;;;;;;;;;;;;;;25.27;36.81;99718.88;5050406;28;19912;-59
2023/03/22 10:47:41;;;;;;;;;;;;;;;24.90;37.13;99715.28;5066980;28;19999;-59
2023/03/22 10:50:11;;;;;;;;;;;;;;;24.52;37.96;99708.03;5070378;28;19923;-60
2023/03/22 10:52:47;;;;;;;;;;;;;;;24.42;37.16;99709.91;5068966;28;19941;-59
2023/03/22 10:55:14;;;;;;;;;;;;;;;24.57;38.31;99704.88;5069682;28;19958;-59
2023/03/22 10:57:41;;;;;;;;;;;;;;;24.93;38.43;99697.78;5069745;28;19934;-59
2023/03/22 11:00:11;;;;;;;;;;;;;;;24.77;37.16;99703.88;5068786;28;19923;-59
2023/03/22 11:02:43;;;;;;;;;;;;;;;25.12;37.94;99709.50;5053242;28;20004;-59
2023/03/22 11:05:17;;;;;;;;;;;;;;;25.11;36.24;99702.31;5058414;28;19950;-59
2023/03/22 11:07:43;;;;;;;;;;;;;;;25.33;37.49;99695.63;5057907;28;19946;-58
2023/03/22 11:10:09;;;;;;;;;;;;;;;25.64;36.93;99700.66;5062864;28;19942;-59
2023/03/22 11:12:35;;;;;;;;;;;;;;;25.77;36.44;99692.09;5064646;28;19959;-59
2023/03/22 11:15:02;;;;;;;;;;;;;;;25.87;35.76;99685.59;5049306;28;19951;-59
2023/03/22 11:17:27;;;;;;;;;;;;;;;26.08;35.86;99688.03;5049198;28;19969;-59
2023/03/22 11:19:54;;;;;;;;;;;;;;;25.95;36.33;99693.84;5049369;28;19931;-58
2023/03/22 11:22:19;;;;;;;;;;;;;;;26.17;35.34;99686.25;5052012;28;20011;-59
2023/03/22 11:24:45;;;;;;;;;;;;;;;26.23;35.25;99682.91;5049567;28;20034;-58
2023/03/22 11:27:17;;;;;;;;;;;;;;;26.12;35.80;99694.03;5049932;28;19998;-58
2023/03/22 11:29:47;;;;;;;;;;;;;;;25.10;35.34;99687.00;5067909;28;19934;-59
2023/03/22 11:32:20;;;;;;;;;;;;;;;25.40;36.02;99681.28;5069627;28;19921;-59
2023/03/22 11:34:46;;;;;;;;;;;;;;;25.88;35.84;99681.00;5066265;28;20303;-59
2023/03/22 11:37:15;;;;;;;;;;;;;;;25.74;36.66;99679.66;5069109;28;20007;-59
2023/03/22 11:39:44;;;;;;;;;;;;;;;25.79;35.48;99677.34;5067823;28;19967;-59
2023/03/22 11:42:16;;;;;;;;;;;;;;;26.00;35.01;99668.00;5057145;28;19931;-59
2023/03/22 11:44:43;;;;;;;;;;;;;;;26.29;35.65;99668.63;5059952;28;19931;-59
2023/03/22 11:47:11;;;;;;;;;;;;;;;26.89;34.71;99656.81;5049654;28;20002;-59
2023/03/22 11:49:36;;;;;;;;;;;;;;;26.43;34.67;99673.50;5052205;28;19957;-59
2023/03/22 11:52:09;;;;;;;;;;;;;;;26.75;34.46;99671.06;5052147;28;20047;-59
2023/03/22 11:54:36;;;;;;;;;;;;;;;26.75;35.17;99662.88;5049592;28;19927;-59
2023/03/22 11:57:03;;;;;;;;;;;;;;;26.75;34.01;99665.63;5049531;28;20402;-59
2023/03/22 11:59:46;;;;;;;;;;;;;;;26.53;34.70;99660.63;5052253;28;19920;-59
2023/03/22 12:02:22;;;;;;;;;;;;;;;25.98;35.33;99653.66;5060212;28;19940;-59
2023/03/22 12:04:49;;;;;;;;;;;;;;;25.50;36.96;99657.56;5069469;28;20007;-59
2023/03/22 12:07:18;;;;;;;;;;;;;;;25.30;36.49;99653.25;5064905;28;19956;-59
2023/03/22 12:09:52;;;;;;;;;;;;;;;24.86;37.26;99645.84;5049757;28;19947;-59
2023/03/22 12:12:24;;;;;;;;;;;;;;;24.62;37.21;99634.56;5051396;28;19950;-59
2023/03/22 12:14:50;;;;;;;;;;;;;;;24.92;37.06;99626.22;5071699;28;19936;-58
2023/03/22 12:17:27;;;;;;;;;;;;;;;25.41;36.16;99627.69;5073278;28;19947;-59
2023/03/22 12:19:59;;;;;;;;;;;;;;;25.71;36.02;99620.03;5073115;28;19932;-59
2023/03/22 12:22:29;;;;;;;;;;;;;;;26.75;35.61;99621.94;5070924;28;20297;-59
2023/03/22 12:24:54;;;;;;;;;;;;;;;26.52;34.07;99612.56;5072988;28;19931;-59
2023/03/22 12:27:34;;;;;;;;;;;;;;;26.23;34.65;99603.84;5072187;28;20393;-59
2023/03/22 12:30:11;;;;;;;;;;;;;;;26.02;35.37;99611.47;5072308;28;20356;-59
2023/03/22 12:32:40;;;;;;;;;;;;;;;26.01;35.78;99607.00;5052324;28;19963;-58
2023/03/22 12:35:06;;;;;;;;;;;;;;;26.48;35.69;99611.16;5072349;28;19946;-59
2023/03/22 12:37:33;;;;;;;;;;;;;;;26.27;34.80;99603.34;5062825;28;20022;-59
2023/03/22 12:40:07;;;;;;;;;;;;;;;26.32;35.65;99598.28;5052069;28;19930;-59
2023/03/22 12:42:41;;;;;;;;;;;;;;;26.33;35.33;99593.66;5054608;28;20061;-59
2023/03/22 12:45:13;;;;;;;;;;;;;;;26.32;35.06;99587.38;5066240;28;19926;-59
2023/03/22 12:47:41;;;;;;;;;;;;;;;26.06;34.85;99593.81;5054157;28;19997;-59
2023/03/22 12:50:11;;;;;;;;;;;;;;;25.90;35.57;99586.28;5058442;28;19937;-59